Time;durP1;ratioP1;P1;durP2;ratioP2;P2;SDS_P1;SDS_P2;PMS_P1;PMS_P2;Temp;Humidity;BMP_temperature;BMP_pressure;BME280_temperature;BME280_humidity;BME280_pressure;Samples;Min_cycle;Max_cycle;Signal;HPM_P1;HPM_P2
2023/06/15 00:00:20;;;;;;;;;;;;;;;17.91;47.94;98196.84;7374693;19;19925;-71
2023/06/15 00:02:47;;;;;;;;;;;;;;;17.87;48.73;98192.91;7371263;19;19923;-72
2023/06/15 00:05:15;;;;;;;;;;;;;;;17.91;47.47;98188.81;7373174;19;19917;-74
2023/06/15 00:07:42;;;;;;;;;;;;;;;17.84;47.64;98191.47;7376883;19;19911;-71
2023/06/15 00:10:09;;;;;;;;;;;;;;;17.77;48.88;98190.59;7366881;19;19929;-70
2023/06/15 00:12:36;;;;;;;;;;;;;;;17.66;50.05;98184.03;7366994;19;20637;-70
2023/06/15 00:15:03;;;;;;;;;;;;;;;17.56;49.85;98183.59;7370687;19;19919;-71
2023/06/15 00:17:30;;;;;;;;;;;;;;;17.50;51.49;98189.78;7374374;19;19930;-73
2023/06/15 00:20:00;;;;;;;;;;;;;;;17.40;49.90;98198.19;7373589;19;19923;-70
2023/06/15 00:22:28;;;;;;;;;;;;;;;17.33;49.76;98202.75;7372933;19;19929;-71
2023/06/15 00:24:55;;;;;;;;;;;;;;;17.24;49.70;98201.25;7369461;19;19930;-70
2023/06/15 00:27:22;;;;;;;;;;;;;;;17.23;49.54;98208.47;7371637;19;20621;-72
2023/06/15 00:29:50;;;;;;;;;;;;;;;17.32;48.44;98209.09;7368636;19;19922;-72
2023/06/15 00:32:17;;;;;;;;;;;;;;;17.34;49.23;98201.69;7371227;19;19934;-71
2023/06/15 00:34:44;;;;;;;;;;;;;;;17.29;49.75;98204.97;7372697;19;19914;-72
2023/06/15 00:37:11;;;;;;;;;;;;;;;17.33;50.10;98206.22;7370997;19;20248;-71
2023/06/15 00:39:38;;;;;;;;;;;;;;;17.34;49.73;98202.50;7368605;19;19939;-72
2023/06/15 00:42:05;;;;;;;;;;;;;;;17.13;50.56;98207.22;7364801;19;19915;-72
2023/06/15 00:44:32;;;;;;;;;;;;;;;17.20;49.43;98216.91;7367629;19;20014;-74
2023/06/15 00:46:59;;;;;;;;;;;;;;;17.15;50.00;98211.31;7370389;19;19926;-70
2023/06/15 00:49:25;;;;;;;;;;;;;;;17.24;49.80;98210.09;7371483;19;19922;-71
2023/06/15 00:51:52;;;;;;;;;;;;;;;17.11;50.47;98215.41;7364967;19;19923;-72
2023/06/15 00:54:21;;;;;;;;;;;;;;;17.06;49.69;98216.03;7369974;19;19922;-70
2023/06/15 00:56:48;;;;;;;;;;;;;;;17.01;50.10;98218.50;7367995;19;19919;-71
2023/06/15 00:59:16;;;;;;;;;;;;;;;17.11;49.92;98218.94;7372282;19;19919;-71
2023/06/15 01:01:44;;;;;;;;;;;;;;;16.98;50.55;98213.56;7368197;19;19923;-73
2023/06/15 01:04:11;;;;;;;;;;;;;;;17.02;50.21;98213.97;7367255;19;19919;-71
2023/06/15 01:06:41;;;;;;;;;;;;;;;16.82;50.82;98225.38;7372760;19;19960;-70
2023/06/15 01:09:09;;;;;;;;;;;;;;;16.81;50.91;98223.75;7370780;19;19918;-70
2023/06/15 01:11:36;;;;;;;;;;;;;;;16.91;50.25;98220.72;7369302;19;19923;-73
2023/06/15 01:14:05;;;;;;;;;;;;;;;16.88;50.01;98218.44;7364818;19;20329;-74
2023/06/15 01:16:32;;;;;;;;;;;;;;;16.79;50.45;98217.78;7373690;19;19927;-74
2023/06/15 01:18:59;;;;;;;;;;;;;;;16.75;51.58;98218.38;7365131;19;19930;-71
2023/06/15 01:21:27;;;;;;;;;;;;;;;16.70;50.29;98216.28;7366350;19;19930;-73
2023/06/15 01:24:18;;;;;;;;;;;;;;;16.82;51.06;98216.56;7374036;19;19919;-72
2023/06/15 01:26:49;;;;;;;;;;;;;;;16.80;51.12;98215.94;7378747;19;20728;-71
2023/06/15 01:29:19;;;;;;;;;;;;;;;16.81;51.25;98221.06;7375175;19;19923;-72
2023/06/15 01:31:46;;;;;;;;;;;;;;;16.71;50.63;98212.56;7373705;19;19927;-72
2023/06/15 01:34:13;;;;;;;;;;;;;;;16.75;50.66;98221.84;7372885;19;19931;-72
2023/06/15 01:36:40;;;;;;;;;;;;;;;16.85;50.44;98214.31;7375729;19;19915;-70
2023/06/15 01:39:07;;;;;;;;;;;;;;;16.84;50.59;98209.97;7373576;19;19927;-71
2023/06/15 01:41:34;;;;;;;;;;;;;;;16.91;51.63;98218.03;7374460;19;20037;-70
2023/06/15 01:44:02;;;;;;;;;;;;;;;16.92;51.28;98209.00;7376697;19;20879;-73
2023/06/15 01:46:28;;;;;;;;;;;;;;;16.99;50.83;98217.88;7375045;19;19922;-70
2023/06/15 01:48:55;;;;;;;;;;;;;;;16.97;51.84;98213.75;7376022;19;19911;-72
2023/06/15 01:51:22;;;;;;;;;;;;;;;16.97;52.37;98211.88;7367882;19;20485;-74
2023/06/15 01:53:49;;;;;;;;;;;;;;;16.93;51.18;98213.31;7378746;19;19918;-70
2023/06/15 01:56:17;;;;;;;;;;;;;;;16.93;51.61;98210.66;7373319;19;20390;-69
2023/06/15 01:58:45;;;;;;;;;;;;;;;16.92;51.56;98210.84;7373308;19;19926;-71
2023/06/15 02:01:11;;;;;;;;;;;;;;;16.91;51.50;98212.69;7371148;19;19922;-72
2023/06/15 02:03:39;;;;;;;;;;;;;;;16.85;52.40;98214.31;7376595;19;20315;-72
2023/06/15 02:06:10;;;;;;;;;;;;;;;16.88;52.35;98218.44;7374621;19;19972;-72
2023/06/15 02:08:36;;;;;;;;;;;;;;;16.85;52.57;98217.00;7375105;19;19925;-71
2023/06/15 02:11:03;;;;;;;;;;;;;;;16.73;53.70;98210.53;7372667;19;19966;-70
2023/06/15 02:13:30;;;;;;;;;;;;;;;16.60;55.22;98213.16;7376363;19;19938;-70
2023/06/15 02:15:57;;;;;;;;;;;;;;;16.56;55.09;98211.88;7375295;19;19942;-73
2023/06/15 02:18:24;;;;;;;;;;;;;;;16.41;55.55;98214.69;7374832;19;20278;-71
2023/06/15 02:20:51;;;;;;;;;;;;;;;16.21;55.94;98214.56;7372155;19;20316;-72
2023/06/15 02:23:19;;;;;;;;;;;;;;;16.17;56.24;98206.13;7377173;19;19938;-71
2023/06/15 02:25:46;;;;;;;;;;;;;;;15.99;56.71;98211.13;7375713;19;19922;-73
2023/06/15 02:28:13;;;;;;;;;;;;;;;15.93;56.55;98210.09;7373188;19;19922;-71
2023/06/15 02:30:39;;;;;;;;;;;;;;;15.87;56.99;98212.69;7377273;19;19923;-71
2023/06/15 02:33:07;;;;;;;;;;;;;;;15.82;56.41;98215.09;7372359;19;19919;-71
2023/06/15 02:35:35;;;;;;;;;;;;;;;15.58;56.54;98211.78;7370836;19;19938;-71
2023/06/15 02:38:02;;;;;;;;;;;;;;;15.66;57.70;98217.00;7369796;19;19914;-71
2023/06/15 02:40:29;;;;;;;;;;;;;;;15.55;58.38;98214.84;7376654;19;19922;-71
2023/06/15 02:42:56;;;;;;;;;;;;;;;15.54;57.57;98215.88;7372097;19;19933;-70
2023/06/15 02:45:22;;;;;;;;;;;;;;;15.51;58.16;98217.09;7375590;19;19918;-72
2023/06/15 02:47:50;;;;;;;;;;;;;;;15.49;57.50;98223.63;7376994;19;19915;-70
2023/06/15 02:50:17;;;;;;;;;;;;;;;15.54;58.08;98221.22;7376337;19;19915;-72
2023/06/15 02:52:56;;;;;;;;;;;;;;;15.59;58.88;98230.28;7370369;19;19925;-70
2023/06/15 02:55:22;;;;;;;;;;;;;;;15.62;58.48;98223.75;7373891;19;19930;-72
2023/06/15 02:57:49;;;;;;;;;;;;;;;15.61;58.45;98232.75;7361612;19;20884;-71
2023/06/15 03:00:26;;;;;;;;;;;;;;;15.57;58.54;98226.16;7362436;19;19954;-71
2023/06/15 03:03:11;;;;;;;;;;;;;;;15.66;57.92;98221.50;7367791;19;20016;-70
2023/06/15 03:05:41;;;;;;;;;;;;;;;15.66;57.73;98224.16;7369869;19;19959;-72
2023/06/15 03:08:11;;;;;;;;;;;;;;;15.71;57.21;98233.28;7370885;19;19982;-71
2023/06/15 03:10:51;;;;;;;;;;;;;;;15.84;57.93;98231.75;7372485;19;19915;-71
2023/06/15 03:13:19;;;;;;;;;;;;;;;15.92;56.91;98234.28;7373072;19;19956;-71
2023/06/15 03:15:48;;;;;;;;;;;;;;;16.02;57.69;98234.75;7373912;19;19964;-71
2023/06/15 03:18:15;;;;;;;;;;;;;;;16.16;57.68;98236.50;7370937;19;20357;-73
2023/06/15 03:20:43;;;;;;;;;;;;;;;16.23;57.02;98241.91;7372602;19;20336;-71
2023/06/15 03:23:11;;;;;;;;;;;;;;;16.16;55.41;98233.00;7372467;19;19939;-73
2023/06/15 03:25:38;;;;;;;;;;;;;;;16.33;56.64;98237.03;7370815;19;19923;-71
2023/06/15 03:28:05;;;;;;;;;;;;;;;16.35;55.97;98237.66;7370819;19;19925;-72
2023/06/15 03:30:35;;;;;;;;;;;;;;;16.38;56.19;98244.47;7373555;19;19926;-71
2023/06/15 03:33:02;;;;;;;;;;;;;;;16.53;55.13;98247.00;7369860;19;20344;-72
2023/06/15 03:35:29;;;;;;;;;;;;;;;16.59;53.42;98244.38;7371670;19;19922;-70
2023/06/15 03:37:56;;;;;;;;;;;;;;;16.77;53.46;98248.34;7368956;19;19919;-70
2023/06/15 03:40:23;;;;;;;;;;;;;;;16.83;52.70;98252.94;7372439;19;20363;-71
2023/06/15 03:42:50;;;;;;;;;;;;;;;16.95;52.51;98254.00;7371649;19;19915;-73
2023/06/15 03:45:18;;;;;;;;;;;;;;;16.96;52.99;98257.53;7368227;19;19918;-70
2023/06/15 03:47:49;;;;;;;;;;;;;;;17.10;52.35;98254.69;7374186;19;19928;-70
2023/06/15 03:50:16;;;;;;;;;;;;;;;17.19;52.07;98257.19;7371975;19;19922;-71
2023/06/15 03:52:43;;;;;;;;;;;;;;;17.26;53.24;98263.38;7368952;19;19915;-70
2023/06/15 03:55:12;;;;;;;;;;;;;;;17.18;51.75;98264.38;7368594;19;20459;-70
2023/06/15 03:57:40;;;;;;;;;;;;;;;17.21;52.03;98265.84;7373218;19;19923;-71
2023/06/15 04:00:07;;;;;;;;;;;;;;;17.19;51.51;98274.03;7368551;19;19982;-70
2023/06/15 04:02:38;;;;;;;;;;;;;;;17.14;52.54;98271.16;7371612;19;19930;-72
2023/06/15 04:05:05;;;;;;;;;;;;;;;17.08;53.32;98277.28;7371307;19;20645;-71
2023/06/15 04:07:32;;;;;;;;;;;;;;;16.98;53.90;98283.03;7372799;19;19934;-70
2023/06/15 04:09:59;;;;;;;;;;;;;;;16.92;53.73;98285.66;7367743;19;19914;-72
2023/06/15 04:12:26;;;;;;;;;;;;;;;16.86;54.16;98279.28;7369639;19;20550;-72
2023/06/15 04:14:53;;;;;;;;;;;;;;;16.88;54.90;98283.41;7369029;19;19933;-70
2023/06/15 04:17:20;;;;;;;;;;;;;;;16.78;54.57;98282.94;7368193;19;19990;-73
2023/06/15 04:19:47;;;;;;;;;;;;;;;16.87;56.45;98283.56;7370186;19;21111;-70
2023/06/15 04:22:14;;;;;;;;;;;;;;;16.87;56.29;98286.25;7371290;19;19952;-71
2023/06/15 04:24:41;;;;;;;;;;;;;;;16.83;56.65;98288.50;7372429;19;20502;-71
2023/06/15 04:27:12;;;;;;;;;;;;;;;16.83;57.39;98287.69;7369306;19;20279;-71
2023/06/15 04:29:45;;;;;;;;;;;;;;;16.83;57.64;98290.34;7374135;19;19927;-71
2023/06/15 04:32:15;;;;;;;;;;;;;;;16.81;55.75;98295.88;7369109;19;19916;-72
2023/06/15 04:34:45;;;;;;;;;;;;;;;16.92;55.78;98299.84;7369484;19;19950;-71
2023/06/15 04:37:13;;;;;;;;;;;;;;;16.90;55.27;98301.88;7366414;19;19914;-71
2023/06/15 04:39:42;;;;;;;;;;;;;;;16.99;57.21;98303.38;7367373;19;19915;-71
2023/06/15 04:42:11;;;;;;;;;;;;;;;17.01;56.33;98303.16;7356510;19;19956;-72
2023/06/15 04:44:39;;;;;;;;;;;;;;;17.06;56.58;98306.91;7364588;19;19934;-72
2023/06/15 04:47:06;;;;;;;;;;;;;;;17.10;58.29;98310.81;7366425;19;20007;-69
2023/06/15 04:49:33;;;;;;;;;;;;;;;17.12;57.38;98315.97;7364853;19;19927;-71
2023/06/15 04:52:01;;;;;;;;;;;;;;;17.15;58.13;98310.22;7357454;19;19938;-70
2023/06/15 04:54:29;;;;;;;;;;;;;;;17.15;58.71;98312.09;7363730;19;19929;-70
2023/06/15 04:56:58;;;;;;;;;;;;;;;17.08;56.59;98309.38;7364666;19;19925;-72
2023/06/15 04:59:25;;;;;;;;;;;;;;;17.08;55.21;98312.88;7372629;19;19929;-70
2023/06/15 05:01:51;;;;;;;;;;;;;;;17.25;56.73;98317.88;7374081;19;19927;-71
2023/06/15 05:04:24;;;;;;;;;;;;;;;17.23;57.16;98317.25;7369164;19;19922;-71
2023/06/15 05:06:51;;;;;;;;;;;;;;;17.25;56.76;98317.88;7367011;19;20615;-73
2023/06/15 05:09:19;;;;;;;;;;;;;;;17.23;55.97;98325.28;7365667;19;19918;-71
2023/06/15 05:11:47;;;;;;;;;;;;;;;17.33;55.22;98317.72;7366274;19;19910;-72
2023/06/15 05:14:14;;;;;;;;;;;;;;;17.51;56.33;98322.50;7371239;19;20279;-72
2023/06/15 05:16:41;;;;;;;;;;;;;;;17.38;56.98;98320.63;7373829;19;20653;-70
2023/06/15 05:19:07;;;;;;;;;;;;;;;17.43;56.26;98320.84;7373522;19;20255;-72
2023/06/15 05:21:34;;;;;;;;;;;;;;;17.50;54.88;98320.84;7368194;19;19926;-70
2023/06/15 05:24:02;;;;;;;;;;;;;;;17.72;53.34;98324.19;7374447;19;19923;-72
2023/06/15 05:26:28;;;;;;;;;;;;;;;17.80;53.24;98324.03;7377919;19;19926;-70
2023/06/15 05:29:03;;;;;;;;;;;;;;;17.81;52.27;98330.22;7373725;19;19923;-70
2023/06/15 05:31:30;;;;;;;;;;;;;;;17.93;52.78;98332.09;7366684;19;20376;-71
2023/06/15 05:33:58;;;;;;;;;;;;;;;18.11;50.62;98333.31;7369991;19;19951;-74
2023/06/15 05:36:30;;;;;;;;;;;;;;;18.12;52.55;98330.47;7363600;19;20455;-71
2023/06/15 05:39:18;;;;;;;;;;;;;;;18.31;52.12;98336.84;7360539;19;19926;-71
2023/06/15 05:41:45;;;;;;;;;;;;;;;18.43;50.20;98337.03;7361643;19;20317;-70
2023/06/15 05:44:12;;;;;;;;;;;;;;;18.48;53.10;98337.22;7369532;19;19922;-71
2023/06/15 05:46:40;;;;;;;;;;;;;;;18.46;51.88;98335.78;7373388;19;20008;-70
2023/06/15 05:49:07;;;;;;;;;;;;;;;18.52;53.03;98337.66;7368258;19;19918;-70
2023/06/15 05:51:35;;;;;;;;;;;;;;;18.52;51.03;98345.69;7372089;19;19918;-70
2023/06/15 05:54:02;;;;;;;;;;;;;;;18.70;51.75;98340.53;7373588;19;19949;-71
2023/06/15 05:56:30;;;;;;;;;;;;;;;18.78;50.89;98348.38;7377009;19;20262;-71
2023/06/15 05:58:57;;;;;;;;;;;;;;;18.95;50.58;98342.56;7373698;19;19923;-70
2023/06/15 06:01:24;;;;;;;;;;;;;;;18.83;48.94;98353.94;7375661;19;19923;-73
2023/06/15 06:03:53;;;;;;;;;;;;;;;18.81;50.52;98347.94;7378718;19;19922;-71
2023/06/15 06:06:19;;;;;;;;;;;;;;;18.85;48.69;98348.34;7365446;19;19925;-70
2023/06/15 06:08:47;;;;;;;;;;;;;;;19.13;49.49;98353.44;7375103;19;19938;-70
2023/06/15 06:11:14;;;;;;;;;;;;;;;19.39;49.33;98352.53;7369300;19;19926;-72
2023/06/15 06:13:50;;;;;;;;;;;;;;;19.62;48.27;98351.19;7375545;19;19914;-72
2023/06/15 06:16:17;;;;;;;;;;;;;;;19.86;47.53;98350.44;7370651;19;19926;-70
2023/06/15 06:18:44;;;;;;;;;;;;;;;19.93;47.46;98353.06;7375071;19;19922;-71
2023/06/15 06:21:11;;;;;;;;;;;;;;;19.87;47.19;98362.00;7367564;19;19919;-71
2023/06/15 06:23:39;;;;;;;;;;;;;;;20.12;45.50;98354.81;7372770;19;20265;-70
2023/06/15 06:26:07;;;;;;;;;;;;;;;20.42;45.52;98364.09;7369850;19;20020;-72
2023/06/15 06:28:35;;;;;;;;;;;;;;;20.75;45.14;98350.41;7374877;19;20349;-71
2023/06/15 06:31:01;;;;;;;;;;;;;;;20.36;44.66;98360.44;7367358;19;19919;-73
2023/06/15 06:33:28;;;;;;;;;;;;;;;20.55;44.67;98362.16;7372394;19;19918;-71
2023/06/15 06:35:55;;;;;;;;;;;;;;;20.52;46.29;98359.88;7368334;19;19989;-73
2023/06/15 06:38:22;;;;;;;;;;;;;;;20.94;46.58;98362.00;7371338;19;19919;-71
2023/06/15 06:40:48;;;;;;;;;;;;;;;20.78;43.93;98352.66;7372335;19;19927;-70
2023/06/15 06:43:15;;;;;;;;;;;;;;;20.74;44.88;98360.31;7372668;19;19918;-74
2023/06/15 06:45:42;;;;;;;;;;;;;;;20.92;44.79;98359.53;7375566;19;20339;-70
2023/06/15 06:48:08;;;;;;;;;;;;;;;20.96;44.69;98358.06;7374056;19;20007;-70
2023/06/15 06:50:35;;;;;;;;;;;;;;;20.94;45.28;98356.63;7375643;19;19919;-71
2023/06/15 06:53:02;;;;;;;;;;;;;;;21.17;43.58;98356.78;7371958;19;19937;-71
2023/06/15 06:55:28;;;;;;;;;;;;;;;21.26;42.57;98365.38;7372432;19;19919;-71
2023/06/15 06:58:00;;;;;;;;;;;;;;;21.43;42.27;98365.59;7376326;19;20460;-73
2023/06/15 07:00:29;;;;;;;;;;;;;;;21.50;42.38;98360.16;7368889;19;19930;-70
2023/06/15 07:02:56;;;;;;;;;;;;;;;21.70;41.74;98361.53;7376096;19;20697;-70
2023/06/15 07:05:23;;;;;;;;;;;;;;;21.74;41.63;98361.88;7368912;19;19923;-71
2023/06/15 07:07:49;;;;;;;;;;;;;;;21.94;41.27;98355.41;7375898;19;19939;-71
2023/06/15 07:10:16;;;;;;;;;;;;;;;21.96;42.21;98364.91;7367543;19;19922;-70
2023/06/15 07:12:43;;;;;;;;;;;;;;;21.58;43.36;98363.34;7374287;19;20260;-71
2023/06/15 07:15:10;;;;;;;;;;;;;;;21.85;45.73;98371.06;7372291;19;19922;-72
2023/06/15 07:17:36;;;;;;;;;;;;;;;21.94;42.31;98366.19;7372886;19;19919;-71
2023/06/15 07:20:03;;;;;;;;;;;;;;;22.09;40.70;98375.50;7367656;19;19915;-70
2023/06/15 07:22:30;;;;;;;;;;;;;;;22.13;42.69;98362.38;7376114;19;19919;-72
2023/06/15 07:24:57;;;;;;;;;;;;;;;22.29;40.58;98364.44;7371855;19;19922;-72
2023/06/15 07:27:23;;;;;;;;;;;;;;;22.18;41.42;98362.50;7366287;19;19925;-71
2023/06/15 07:29:50;;;;;;;;;;;;;;;22.42;41.46;98367.97;7372918;19;19955;-73
2023/06/15 07:32:17;;;;;;;;;;;;;;;22.54;39.77;98360.72;7369174;19;19932;-70
2023/06/15 07:34:44;;;;;;;;;;;;;;;22.48;40.18;98365.16;7370559;19;19919;-72
2023/06/15 07:37:11;;;;;;;;;;;;;;;22.50;39.66;98363.06;7367909;19;21018;-71
2023/06/15 07:39:38;;;;;;;;;;;;;;;22.78;40.14;98365.06;7376461;19;19943;-71
2023/06/15 07:42:06;;;;;;;;;;;;;;;22.91;41.54;98358.63;7370041;19;19922;-70
2023/06/15 07:44:33;;;;;;;;;;;;;;;23.30;39.84;98352.69;7374884;19;19922;-72
2023/06/15 07:47:00;;;;;;;;;;;;;;;23.15;40.31;98350.53;7375905;19;19926;-70
2023/06/15 07:49:26;;;;;;;;;;;;;;;23.23;44.90;98355.53;7364876;19;20336;-72
2023/06/15 07:52:11;;;;;;;;;;;;;;;23.19;38.93;98362.47;7367094;19;19999;-71
2023/06/15 07:54:38;;;;;;;;;;;;;;;23.45;39.29;98351.13;7372365;19;19922;-69
2023/06/15 07:57:05;;;;;;;;;;;;;;;23.50;39.53;98347.72;7364033;19;19934;-70
2023/06/15 07:59:31;;;;;;;;;;;;;;;23.71;38.85;98358.91;7366354;19;19986;-70
2023/06/15 08:01:58;;;;;;;;;;;;;;;24.06;38.29;98354.19;7359367;19;19926;-73
2023/06/15 08:04:25;;;;;;;;;;;;;;;23.56;39.29;98352.16;7370068;19;19923;-71
2023/06/15 08:06:52;;;;;;;;;;;;;;;23.72;38.19;98352.47;7368492;19;19961;-70
2023/06/15 08:09:19;;;;;;;;;;;;;;;24.14;37.31;98349.44;7367748;19;19931;-74
2023/06/15 08:11:47;;;;;;;;;;;;;;;24.10;36.95;98354.53;7369547;19;20391;-73
2023/06/15 08:14:14;;;;;;;;;;;;;;;24.06;36.35;98354.19;7371048;19;20277;-71
2023/06/15 08:16:41;;;;;;;;;;;;;;;24.30;36.90;98351.34;7371524;19;19923;-71
2023/06/15 08:19:07;;;;;;;;;;;;;;;24.17;38.17;98340.84;7369933;19;19911;-70
2023/06/15 08:21:34;;;;;;;;;;;;;;;24.34;37.40;98349.81;7368119;19;20380;-74
2023/06/15 08:24:01;;;;;;;;;;;;;;;24.61;38.41;98346.47;7372591;19;19950;-72
2023/06/15 08:26:28;;;;;;;;;;;;;;;24.67;36.33;98351.72;7368345;19;19921;-70
2023/06/15 08:28:54;;;;;;;;;;;;;;;24.85;36.08;98349.78;7371270;19;20123;-72
2023/06/15 08:31:33;;;;;;;;;;;;;;;24.82;37.46;98350.28;7365984;19;19922;-71
2023/06/15 08:34:05;;;;;;;;;;;;;;;25.21;36.56;98343.00;7369163;19;19925;-74
2023/06/15 08:36:31;;;;;;;;;;;;;;;25.48;34.68;98334.13;7372629;19;19942;-71
2023/06/15 08:38:58;;;;;;;;;;;;;;;25.40;36.02;98330.78;7370190;19;19982;-71
2023/06/15 08:41:25;;;;;;;;;;;;;;;25.26;34.50;98332.25;7368543;19;19910;-71
2023/06/15 08:43:55;;;;;;;;;;;;;;;25.31;36.17;98337.72;7370093;19;19919;-71
2023/06/15 08:46:25;;;;;;;;;;;;;;;25.26;34.54;98342.25;7365927;19;20482;-73
2023/06/15 08:48:52;;;;;;;;;;;;;;;25.59;34.55;98336.69;7368503;19;19922;-74
2023/06/15 08:51:19;;;;;;;;;;;;;;;25.86;34.11;98340.50;7361747;19;20380;-70
2023/06/15 08:53:46;;;;;;;;;;;;;;;25.85;33.55;98331.56;7365586;19;19923;-71
2023/06/15 08:56:13;;;;;;;;;;;;;;;26.10;34.89;98339.13;7365848;19;19926;-71
2023/06/15 08:58:40;;;;;;;;;;;;;;;25.77;33.29;98338.22;7371854;19;19925;-73
2023/06/15 09:01:07;;;;;;;;;;;;;;;26.12;34.31;98331.56;7368464;19;19930;-73
2023/06/15 09:03:34;;;;;;;;;;;;;;;26.21;33.57;98323.75;7370237;19;19923;-71
2023/06/15 09:06:01;;;;;;;;;;;;;;;26.32;33.27;98324.66;7366799;19;19926;-72
2023/06/15 09:08:27;;;;;;;;;;;;;;;26.57;32.94;98330.31;7366686;19;20204;-70
2023/06/15 09:11:07;;;;;;;;;;;;;;;27.00;33.25;98328.41;7367059;19;20011;-73
2023/06/15 09:13:34;;;;;;;;;;;;;;;26.65;32.11;98335.25;7366897;19;20345;-73
2023/06/15 09:16:01;;;;;;;;;;;;;;;26.96;32.06;98327.28;7368070;19;20725;-72
2023/06/15 09:18:27;;;;;;;;;;;;;;;26.78;32.69;98330.44;7367390;19;19922;-70
2023/06/15 09:20:59;;;;;;;;;;;;;;;27.07;32.45;98322.75;7365868;19;19930;-71
2023/06/15 09:23:25;;;;;;;;;;;;;;;27.40;32.14;98324.25;7365067;19;19986;-71
2023/06/15 09:25:52;;;;;;;;;;;;;;;27.24;30.68;98323.38;7366335;19;19990;-72
2023/06/15 09:28:20;;;;;;;;;;;;;;;27.14;31.02;98315.97;7368878;19;19978;-71
2023/06/15 09:30:51;;;;;;;;;;;;;;;27.51;31.75;98316.94;7371395;19;19930;-73
2023/06/15 09:33:18;;;;;;;;;;;;;;;27.32;29.80;98325.56;7370371;19;19919;-70
2023/06/15 09:35:56;;;;;;;;;;;;;;;27.66;30.58;98316.19;7366685;19;19923;-74
2023/06/15 09:38:42;;;;;;;;;;;;;;;27.76;30.99;98319.72;7369983;19;19929;-71
2023/06/15 09:41:09;;;;;;;;;;;;;;;28.16;28.60;98318.16;7359043;19;19937;-71
2023/06/15 09:43:38;;;;;;;;;;;;;;;28.37;28.43;98318.97;7367155;19;19918;-71
2023/06/15 09:46:16;;;;;;;;;;;;;;;28.13;27.93;98313.28;7371068;19;19926;-72
2023/06/15 09:48:43;;;;;;;;;;;;;;;28.32;29.13;98312.72;7374623;19;19919;-72
2023/06/15 09:51:10;;;;;;;;;;;;;;;28.37;27.74;98324.44;7364794;19;19922;-71
2023/06/15 09:53:37;;;;;;;;;;;;;;;28.51;27.13;98323.91;7379591;19;20258;-72
2023/06/15 09:56:04;;;;;;;;;;;;;;;28.40;26.33;98328.50;7378646;19;19959;-72
2023/06/15 09:58:50;;;;;;;;;;;;;;;28.28;24.96;98325.22;7378724;19;19998;-71
2023/06/15 10:01:17;;;;;;;;;;;;;;;28.36;29.31;98322.81;7370225;19;19919;-72
2023/06/15 10:03:44;;;;;;;;;;;;;;;28.62;28.04;98320.91;7371610;19;19919;-72
2023/06/15 10:06:12;;;;;;;;;;;;;;;28.90;29.80;98321.38;7371143;19;19967;-71
2023/06/15 10:08:39;;;;;;;;;;;;;;;29.39;26.86;98317.97;7379692;19;19922;-72
2023/06/15 10:11:07;;;;;;;;;;;;;;;29.72;25.57;98313.72;7372268;19;20704;-72
2023/06/15 10:13:51;;;;;;;;;;;;;;;29.63;24.42;98318.09;7377961;19;19919;-73
2023/06/15 10:16:18;;;;;;;;;;;;;;;29.01;24.53;98327.59;7363115;19;19919;-73
2023/06/15 10:18:45;;;;;;;;;;;;;;;28.72;27.91;98324.69;7372914;19;19918;-71
2023/06/15 10:21:12;;;;;;;;;;;;;;;28.30;25.37;98328.50;7368380;19;19915;-70
2023/06/15 10:23:40;;;;;;;;;;;;;;;27.35;26.88;98326.94;7377810;19;19930;-70
2023/06/15 10:26:11;;;;;;;;;;;;;;;26.47;30.80;98324.78;7372497;19;19964;-71
2023/06/15 10:28:40;;;;;;;;;;;;;;;26.47;31.47;98324.78;7376907;19;19962;-71
2023/06/15 10:31:08;;;;;;;;;;;;;;;25.85;33.16;98323.44;7372879;19;19922;-72
2023/06/15 10:33:44;;;;;;;;;;;;;;;25.49;32.16;98324.91;7373075;19;19919;-74
2023/06/15 10:36:15;;;;;;;;;;;;;;;25.44;33.38;98319.47;7366214;19;19947;-70
2023/06/15 10:38:54;;;;;;;;;;;;;;;25.62;32.04;98321.81;7378300;19;19922;-73
2023/06/15 10:41:21;;;;;;;;;;;;;;;25.56;32.19;98325.53;7366554;19;19926;-70
2023/06/15 10:44:01;;;;;;;;;;;;;;;25.65;31.51;98324.03;7376277;19;20655;-70
2023/06/15 10:46:28;;;;;;;;;;;;;;;25.77;34.65;98324.66;7371262;19;19922;-73
2023/06/15 10:48:55;;;;;;;;;;;;;;;25.85;32.73;98320.72;7371849;19;19926;-73
2023/06/15 10:51:22;;;;;;;;;;;;;;;26.01;32.35;98327.09;7364781;19;19918;-71
2023/06/15 10:53:49;;;;;;;;;;;;;;;26.09;30.89;98321.22;7367970;19;20562;-71
2023/06/15 10:56:17;;;;;;;;;;;;;;;26.13;31.78;98325.06;7366621;19;19910;-74
2023/06/15 10:58:53;;;;;;;;;;;;;;;26.10;31.38;98325.56;7367114;19;19936;-73
2023/06/15 11:01:24;;;;;;;;;;;;;;;25.91;31.22;98325.13;7364064;19;19926;-74
2023/06/15 11:03:56;;;;;;;;;;;;;;;25.95;29.28;98325.44;7373566;19;19983;-73
2023/06/15 11:06:34;;;;;;;;;;;;;;;25.80;31.14;98326.91;7369829;19;19919;-70
2023/06/15 11:09:02;;;;;;;;;;;;;;;26.24;31.59;98326.75;7376585;19;19942;-71
2023/06/15 11:11:29;;;;;;;;;;;;;;;26.48;30.11;98321.78;7370442;19;19936;-73
2023/06/15 11:14:03;;;;;;;;;;;;;;;26.88;28.78;98311.47;7377594;19;20034;-71
2023/06/15 11:16:30;;;;;;;;;;;;;;;27.25;27.98;98318.75;7369119;19;19929;-71
2023/06/15 11:18:57;;;;;;;;;;;;;;;27.27;28.54;98322.03;7377770;19;19929;-71
2023/06/15 11:21:26;;;;;;;;;;;;;;;27.33;26.79;98312.81;7367480;19;19922;-74
2023/06/15 11:23:57;;;;;;;;;;;;;;;27.36;29.30;98318.53;7374531;19;19915;-72
2023/06/15 11:26:27;;;;;;;;;;;;;;;27.24;29.13;98317.94;7365595;19;19907;-71
2023/06/15 11:28:57;;;;;;;;;;;;;;;27.41;26.40;98317.75;7371668;19;20565;-70
2023/06/15 11:31:23;;;;;;;;;;;;;;;26.97;27.65;98311.81;7369567;19;21160;-70
2023/06/15 11:33:50;;;;;;;;;;;;;;;26.50;29.13;98307.97;7374757;19;19926;-72
2023/06/15 11:36:18;;;;;;;;;;;;;;;26.57;28.22;98313.19;7366203;19;19915;-73
2023/06/15 11:38:44;;;;;;;;;;;;;;;26.60;28.13;98308.09;7369774;19;19969;-72
2023/06/15 11:41:11;;;;;;;;;;;;;;;26.45;28.15;98310.66;7366436;19;19922;-72
2023/06/15 11:43:39;;;;;;;;;;;;;;;26.13;28.93;98311.50;7374150;19;20593;-73
2023/06/15 11:46:13;;;;;;;;;;;;;;;26.11;30.77;98310.94;7375160;19;19922;-71
2023/06/15 11:48:40;;;;;;;;;;;;;;;26.22;31.13;98307.22;7371403;19;20356;-72
2023/06/15 11:51:09;;;;;;;;;;;;;;;26.55;29.86;98308.03;7369498;19;19923;-72
2023/06/15 11:53:37;;;;;;;;;;;;;;;26.81;27.65;98300.06;7375178;19;20360;-74
2023/06/15 11:56:06;;;;;;;;;;;;;;;26.75;28.02;98293.78;7372413;19;19919;-73
2023/06/15 11:58:33;;;;;;;;;;;;;;;26.50;26.56;98297.13;7367222;19;19923;-70
2023/06/15 12:01:00;;;;;;;;;;;;;;;26.18;30.39;98299.88;7370674;19;20260;-71
2023/06/15 12:03:27;;;;;;;;;;;;;;;26.26;29.25;98293.97;7366858;19;19919;-72
2023/06/15 12:05:57;;;;;;;;;;;;;;;26.13;29.64;98287.09;7372808;19;19926;-73
2023/06/15 12:08:25;;;;;;;;;;;;;;;26.74;30.44;98288.63;7362102;19;20344;-74
2023/06/15 12:10:52;;;;;;;;;;;;;;;27.08;30.06;98297.22;7367981;19;20289;-74
2023/06/15 12:13:19;;;;;;;;;;;;;;;27.30;30.41;98292.41;7362988;19;19927;-71
2023/06/15 12:15:46;;;;;;;;;;;;;;;27.11;30.06;98299.38;7364749;19;19926;-74
2023/06/15 12:18:13;;;;;;;;;;;;;;;27.42;28.68;98296.81;7363610;19;19923;-70
2023/06/15 12:20:40;;;;;;;;;;;;;;;27.26;27.09;98291.34;7368772;19;19940;-72
2023/06/15 12:23:07;;;;;;;;;;;;;;;27.09;28.06;98288.81;7369545;19;19923;-74
2023/06/15 12:25:41;;;;;;;;;;;;;;;27.48;26.55;98277.53;7367436;19;19930;-74
2023/06/15 12:28:16;;;;;;;;;;;;;;;27.67;28.81;98282.47;7372072;19;19918;-72
2023/06/15 12:30:47;;;;;;;;;;;;;;;27.77;26.45;98277.03;7371160;19;20325;-74
2023/06/15 12:33:24;;;;;;;;;;;;;;;28.06;29.81;98285.53;7367455;19;19919;-70
2023/06/15 12:35:51;;;;;;;;;;;;;;;28.03;26.61;98272.47;7369144;19;19947;-72
2023/06/15 12:38:19;;;;;;;;;;;;;;;27.88;27.09;98275.19;7362712;19;20351;-72
2023/06/15 12:40:45;;;;;;;;;;;;;;;28.12;26.15;98268.13;7365774;19;19934;-71
2023/06/15 12:43:12;;;;;;;;;;;;;;;28.12;27.83;98272.75;7369048;19;20336;-72
2023/06/15 12:45:39;;;;;;;;;;;;;;;28.07;26.21;98270.84;7366365;19;19991;-74
2023/06/15 12:48:06;;;;;;;;;;;;;;;28.00;29.10;98264.88;7373701;19;20012;-73
2023/06/15 12:50:33;;;;;;;;;;;;;;;27.89;27.00;98274.94;7367247;19;19922;-73
2023/06/15 12:53:00;;;;;;;;;;;;;;;27.68;29.24;98267.81;7366251;19;19922;-71